sensor_id;sensor_type;location;lat;lon;timestamp;temperature;humidity
56771;DHT22;42641;59.794;17.616;2023-08-24T00:01:19;17.10;99.90
56771;DHT22;42641;59.794;17.616;2023-08-24T00:03:45;17.10;99.90
56771;DHT22;42641;59.794;17.616;2023-08-24T00:06:12;17.10;99.90
56771;DHT22;42641;59.794;17.616;2023-08-24T00:08:39;17.10;99.90
56771;DHT22;42641;59.794;17.616;2023-08-24T00:11:05;17.10;99.90
56771;DHT22;42641;59.794;17.616;2023-08-24T00:13:32;17.10;99.90
56771;DHT22;42641;59.794;17.616;2023-08-24T00:15:58;17.20;99.90
56771;DHT22;42641;59.794;17.616;2023-08-24T00:18:25;17.20;99.90
56771;DHT22;42641;59.794;17.616;2023-08-24T00:20:52;17.10;99.90
56771;DHT22;42641;59.794;17.616;2023-08-24T00:23:18;17.20;99.90
56771;DHT22;42641;59.794;17.616;2023-08-24T00:25:45;17.10;99.90
56771;DHT22;42641;59.794;17.616;2023-08-24T00:28:11;17.10;99.90
56771;DHT22;42641;59.794;17.616;2023-08-24T00:30:37;17.10;99.90
56771;DHT22;42641;59.794;17.616;2023-08-24T00:33:05;17.10;99.90
56771;DHT22;42641;59.794;17.616;2023-08-24T00:35:31;17.10;99.90
56771;DHT22;42641;59.794;17.616;2023-08-24T00:37:57;17.20;99.90
56771;DHT22;42641;59.794;17.616;2023-08-24T00:40:24;17.20;99.90
56771;DHT22;42641;59.794;17.616;2023-08-24T00:42:51;17.20;99.90
56771;DHT22;42641;59.794;17.616;2023-08-24T00:45:17;17.20;99.90
56771;DHT22;42641;59.794;17.616;2023-08-24T00:47:46;17.20;99.90
56771;DHT22;42641;59.794;17.616;2023-08-24T00:50:14;17.20;99.90
56771;DHT22;42641;59.794;17.616;2023-08-24T00:52:42;17.20;99.90
56771;DHT22;42641;59.794;17.616;2023-08-24T00:55:09;17.20;99.90
56771;DHT22;42641;59.794;17.616;2023-08-24T00:57:37;17.20;99.90
56771;DHT22;42641;59.794;17.616;2023-08-24T01:00:05;17.20;99.90
56771;DHT22;42641;59.794;17.616;2023-08-24T01:02:34;17.30;99.90
56771;DHT22;42641;59.794;17.616;2023-08-24T01:05:01;17.30;99.90
56771;DHT22;42641;59.794;17.616;2023-08-24T01:07:29;17.30;99.90
56771;DHT22;42641;59.794;17.616;2023-08-24T01:09:55;17.30;99.90
56771;DHT22;42641;59.794;17.616;2023-08-24T01:12:27;17.30;99.90
56771;DHT22;42641;59.794;17.616;2023-08-24T01:15:13;17.30;99.90
56771;DHT22;42641;59.794;17.616;2023-08-24T01:17:42;17.30;99.90
56771;DHT22;42641;59.794;17.616;2023-08-24T01:20:10;17.30;99.90
56771;DHT22;42641;59.794;17.616;2023-08-24T01:22:44;17.30;99.90
56771;DHT22;42641;59.794;17.616;2023-08-24T01:25:17;17.30;99.90
56771;DHT22;42641;59.794;17.616;2023-08-24T01:27:48;17.30;99.90
56771;DHT22;42641;59.794;17.616;2023-08-24T01:30:18;17.30;99.90
56771;DHT22;42641;59.794;17.616;2023-08-24T01:32:46;17.20;99.90
56771;DHT22;42641;59.794;17.616;2023-08-24T01:35:12;17.30;99.90
56771;DHT22;42641;59.794;17.616;2023-08-24T01:37:38;17.30;99.90
56771;DHT22;42641;59.794;17.616;2023-08-24T01:40:07;17.30;99.90
56771;DHT22;42641;59.794;17.616;2023-08-24T01:42:59;17.30;99.90
56771;DHT22;42641;59.794;17.616;2023-08-24T01:45:31;17.30;99.90
56771;DHT22;42641;59.794;17.616;2023-08-24T01:48:01;17.30;99.90
56771;DHT22;42641;59.794;17.616;2023-08-24T01:50:30;17.30;99.90
56771;DHT22;42641;59.794;17.616;2023-08-24T01:52:57;17.30;99.90
56771;DHT22;42641;59.794;17.616;2023-08-24T01:55:25;17.30;99.90
56771;DHT22;42641;59.794;17.616;2023-08-24T01:57:52;17.30;99.90
56771;DHT22;42641;59.794;17.616;2023-08-24T02:00:19;17.30;99.90
56771;DHT22;42641;59.794;17.616;2023-08-24T02:02:47;17.30;99.90
56771;DHT22;42641;59.794;17.616;2023-08-24T02:05:13;17.30;99.90
56771;DHT22;42641;59.794;17.616;2023-08-24T02:07:40;17.30;99.90
56771;DHT22;42641;59.794;17.616;2023-08-24T02:10:09;17.30;99.90
56771;DHT22;42641;59.794;17.616;2023-08-24T02:12:36;17.30;99.90
56771;DHT22;42641;59.794;17.616;2023-08-24T02:15:03;17.30;99.90
56771;DHT22;42641;59.794;17.616;2023-08-24T02:17:30;17.20;99.90
56771;DHT22;42641;59.794;17.616;2023-08-24T02:19:56;17.30;99.90
56771;DHT22;42641;59.794;17.616;2023-08-24T02:22:23;17.20;99.90
56771;DHT22;42641;59.794;17.616;2023-08-24T02:24:49;17.30;99.90
56771;DHT22;42641;59.794;17.616;2023-08-24T02:27:16;17.20;99.90
56771;DHT22;42641;59.794;17.616;2023-08-24T02:29:42;17.20;99.90
56771;DHT22;42641;59.794;17.616;2023-08-24T02:32:09;17.20;99.90
56771;DHT22;42641;59.794;17.616;2023-08-24T02:34:35;17.20;99.90
56771;DHT22;42641;59.794;17.616;2023-08-24T02:37:01;17.20;99.90
56771;DHT22;42641;59.794;17.616;2023-08-24T02:39:28;17.20;99.90
56771;DHT22;42641;59.794;17.616;2023-08-24T02:41:54;17.20;99.90
56771;DHT22;42641;59.794;17.616;2023-08-24T02:44:21;17.10;99.90
56771;DHT22;42641;59.794;17.616;2023-08-24T02:46:48;17.10;99.90
56771;DHT22;42641;59.794;17.616;2023-08-24T02:49:17;17.10;99.90
56771;DHT22;42641;59.794;17.616;2023-08-24T02:51:44;17.10;99.90
56771;DHT22;42641;59.794;17.616;2023-08-24T02:54:11;17.10;99.90
56771;DHT22;42641;59.794;17.616;2023-08-24T02:56:37;17.10;99.90
56771;DHT22;42641;59.794;17.616;2023-08-24T02:59:04;17.10;99.90
56771;DHT22;42641;59.794;17.616;2023-08-24T03:01:30;17.10;99.90
56771;DHT22;42641;59.794;17.616;2023-08-24T03:03:56;17.00;99.90
56771;DHT22;42641;59.794;17.616;2023-08-24T03:06:24;17.00;99.90
56771;DHT22;42641;59.794;17.616;2023-08-24T03:08:51;17.00;99.90
56771;DHT22;42641;59.794;17.616;2023-08-24T03:11:18;16.90;99.90
56771;DHT22;42641;59.794;17.616;2023-08-24T03:13:44;16.90;99.90
56771;DHT22;42641;59.794;17.616;2023-08-24T03:16:11;16.90;99.90
56771;DHT22;42641;59.794;17.616;2023-08-24T03:18:38;17.00;99.90
56771;DHT22;42641;59.794;17.616;2023-08-24T03:21:04;17.00;99.90
56771;DHT22;42641;59.794;17.616;2023-08-24T03:23:33;16.90;99.90
56771;DHT22;42641;59.794;17.616;2023-08-24T03:26:00;16.90;99.90
56771;DHT22;42641;59.794;17.616;2023-08-24T03:28:26;16.90;99.90
56771;DHT22;42641;59.794;17.616;2023-08-24T03:30:53;16.90;99.90
56771;DHT22;42641;59.794;17.616;2023-08-24T03:33:22;16.90;99.90
56771;DHT22;42641;59.794;17.616;2023-08-24T03:35:48;16.80;99.90
56771;DHT22;42641;59.794;17.616;2023-08-24T03:38:15;16.80;99.90
56771;DHT22;42641;59.794;17.616;2023-08-24T03:40:42;16.90;99.90
56771;DHT22;42641;59.794;17.616;2023-08-24T03:43:08;16.90;99.90
56771;DHT22;42641;59.794;17.616;2023-08-24T03:45:35;16.80;99.90
56771;DHT22;42641;59.794;17.616;2023-08-24T03:48:01;16.80;99.90
56771;DHT22;42641;59.794;17.616;2023-08-24T03:50:28;16.80;99.90
56771;DHT22;42641;59.794;17.616;2023-08-24T03:52:54;16.80;99.90
56771;DHT22;42641;59.794;17.616;2023-08-24T03:55:22;16.90;99.90
56771;DHT22;42641;59.794;17.616;2023-08-24T03:57:49;16.90;99.90
56771;DHT22;42641;59.794;17.616;2023-08-24T04:00:15;16.90;99.90
56771;DHT22;42641;59.794;17.616;2023-08-24T04:02:44;16.90;99.90
56771;DHT22;42641;59.794;17.616;2023-08-24T04:05:17;16.90;99.90
56771;DHT22;42641;59.794;17.616;2023-08-24T04:07:44;16.90;99.90
56771;DHT22;42641;59.794;17.616;2023-08-24T04:10:11;16.90;99.90
56771;DHT22;42641;59.794;17.616;2023-08-24T04:12:37;16.90;99.90
56771;DHT22;42641;59.794;17.616;2023-08-24T04:15:04;16.90;99.90
56771;DHT22;42641;59.794;17.616;2023-08-24T04:17:31;16.90;99.90
56771;DHT22;42641;59.794;17.616;2023-08-24T04:19:58;16.90;99.90
56771;DHT22;42641;59.794;17.616;2023-08-24T04:22:24;16.90;99.90
56771;DHT22;42641;59.794;17.616;2023-08-24T04:24:51;16.90;99.90
56771;DHT22;42641;59.794;17.616;2023-08-24T04:27:17;16.90;99.90
56771;DHT22;42641;59.794;17.616;2023-08-24T04:29:44;16.90;99.90
56771;DHT22;42641;59.794;17.616;2023-08-24T04:32:10;17.00;99.90
56771;DHT22;42641;59.794;17.616;2023-08-24T04:34:36;17.00;99.90
56771;DHT22;42641;59.794;17.616;2023-08-24T04:37:03;17.10;99.90
56771;DHT22;42641;59.794;17.616;2023-08-24T04:39:29;17.10;99.90
56771;DHT22;42641;59.794;17.616;2023-08-24T04:41:56;17.10;99.90
56771;DHT22;42641;59.794;17.616;2023-08-24T04:44:23;17.10;99.90
56771;DHT22;42641;59.794;17.616;2023-08-24T04:46:50;17.10;99.90
56771;DHT22;42641;59.794;17.616;2023-08-24T04:49:17;17.00;99.90
56771;DHT22;42641;59.794;17.616;2023-08-24T04:51:43;17.10;99.90
56771;DHT22;42641;59.794;17.616;2023-08-24T04:54:10;17.10;99.90
56771;DHT22;42641;59.794;17.616;2023-08-24T04:56:36;17.20;99.90
56771;DHT22;42641;59.794;17.616;2023-08-24T04:59:02;17.20;99.90
56771;DHT22;42641;59.794;17.616;2023-08-24T05:01:29;17.20;99.90
56771;DHT22;42641;59.794;17.616;2023-08-24T05:03:58;17.10;99.90
56771;DHT22;42641;59.794;17.616;2023-08-24T05:06:25;17.10;99.90
56771;DHT22;42641;59.794;17.616;2023-08-24T05:08:52;17.10;99.90
56771;DHT22;42641;59.794;17.616;2023-08-24T05:11:21;17.20;99.90
56771;DHT22;42641;59.794;17.616;2023-08-24T05:13:48;17.20;99.90
56771;DHT22;42641;59.794;17.616;2023-08-24T05:16:16;17.20;99.90
56771;DHT22;42641;59.794;17.616;2023-08-24T05:18:42;17.20;99.90
56771;DHT22;42641;59.794;17.616;2023-08-24T05:21:09;17.20;99.90
56771;DHT22;42641;59.794;17.616;2023-08-24T05:23:35;17.30;99.90
56771;DHT22;42641;59.794;17.616;2023-08-24T05:26:02;17.30;99.90
56771;DHT22;42641;59.794;17.616;2023-08-24T05:28:30;17.40;99.90
56771;DHT22;42641;59.794;17.616;2023-08-24T05:30:57;17.40;99.90
56771;DHT22;42641;59.794;17.616;2023-08-24T05:33:25;17.40;99.90
56771;DHT22;42641;59.794;17.616;2023-08-24T05:35:52;17.40;99.90
56771;DHT22;42641;59.794;17.616;2023-08-24T05:38:19;17.50;99.90
56771;DHT22;42641;59.794;17.616;2023-08-24T05:40:48;17.40;99.90
56771;DHT22;42641;59.794;17.616;2023-08-24T05:43:16;17.50;99.90
56771;DHT22;42641;59.794;17.616;2023-08-24T05:45:42;17.50;99.90
56771;DHT22;42641;59.794;17.616;2023-08-24T05:48:11;17.60;99.90
56771;DHT22;42641;59.794;17.616;2023-08-24T05:50:43;17.60;99.90
56771;DHT22;42641;59.794;17.616;2023-08-24T05:53:10;17.70;99.90
56771;DHT22;42641;59.794;17.616;2023-08-24T05:55:37;17.70;99.90
56771;DHT22;42641;59.794;17.616;2023-08-24T05:58:04;17.70;99.90
56771;DHT22;42641;59.794;17.616;2023-08-24T06:00:31;17.70;99.90
56771;DHT22;42641;59.794;17.616;2023-08-24T06:02:57;17.80;99.90
56771;DHT22;42641;59.794;17.616;2023-08-24T06:05:24;17.90;99.90
56771;DHT22;42641;59.794;17.616;2023-08-24T06:07:50;18.00;99.90
56771;DHT22;42641;59.794;17.616;2023-08-24T06:10:18;18.00;99.90
56771;DHT22;42641;59.794;17.616;2023-08-24T06:12:44;18.00;99.90
56771;DHT22;42641;59.794;17.616;2023-08-24T06:15:10;18.00;99.90
56771;DHT22;42641;59.794;17.616;2023-08-24T06:17:39;18.10;99.90
56771;DHT22;42641;59.794;17.616;2023-08-24T06:20:06;18.10;99.90
56771;DHT22;42641;59.794;17.616;2023-08-24T06:22:36;18.20;99.90
56771;DHT22;42641;59.794;17.616;2023-08-24T06:25:03;18.20;99.90
56771;DHT22;42641;59.794;17.616;2023-08-24T06:27:31;18.20;99.90
56771;DHT22;42641;59.794;17.616;2023-08-24T06:29:57;18.30;99.90
56771;DHT22;42641;59.794;17.616;2023-08-24T06:32:24;18.40;99.90
56771;DHT22;42641;59.794;17.616;2023-08-24T06:34:50;18.40;99.90
56771;DHT22;42641;59.794;17.616;2023-08-24T06:37:17;18.40;99.90
56771;DHT22;42641;59.794;17.616;2023-08-24T06:39:46;18.40;99.90
56771;DHT22;42641;59.794;17.616;2023-08-24T06:42:12;18.30;99.90
56771;DHT22;42641;59.794;17.616;2023-08-24T06:44:40;18.30;99.90
56771;DHT22;42641;59.794;17.616;2023-08-24T06:47:07;18.40;99.90
56771;DHT22;42641;59.794;17.616;2023-08-24T06:49:33;18.50;99.90
56771;DHT22;42641;59.794;17.616;2023-08-24T06:52:01;18.50;99.90
56771;DHT22;42641;59.794;17.616;2023-08-24T06:54:27;18.60;99.90
56771;DHT22;42641;59.794;17.616;2023-08-24T06:56:53;18.60;99.90
56771;DHT22;42641;59.794;17.616;2023-08-24T06:59:21;18.60;99.90
56771;DHT22;42641;59.794;17.616;2023-08-24T07:01:48;18.60;99.90
56771;DHT22;42641;59.794;17.616;2023-08-24T07:04:14;18.60;99.90
56771;DHT22;42641;59.794;17.616;2023-08-24T07:06:40;18.60;99.90
56771;DHT22;42641;59.794;17.616;2023-08-24T07:09:08;18.60;99.90
56771;DHT22;42641;59.794;17.616;2023-08-24T07:11:35;18.60;99.90
56771;DHT22;42641;59.794;17.616;2023-08-24T07:14:01;18.70;99.90
56771;DHT22;42641;59.794;17.616;2023-08-24T07:16:28;18.80;99.90
56771;DHT22;42641;59.794;17.616;2023-08-24T07:18:55;18.90;99.90
56771;DHT22;42641;59.794;17.616;2023-08-24T07:21:21;19.10;99.90
56771;DHT22;42641;59.794;17.616;2023-08-24T07:23:48;19.20;99.90
56771;DHT22;42641;59.794;17.616;2023-08-24T07:26:14;19.30;99.90
56771;DHT22;42641;59.794;17.616;2023-08-24T07:28:41;19.40;99.90
56771;DHT22;42641;59.794;17.616;2023-08-24T07:31:08;19.50;99.90
56771;DHT22;42641;59.794;17.616;2023-08-24T07:33:40;19.60;99.90
56771;DHT22;42641;59.794;17.616;2023-08-24T07:36:07;19.70;99.90
56771;DHT22;42641;59.794;17.616;2023-08-24T07:38:34;19.80;99.90
56771;DHT22;42641;59.794;17.616;2023-08-24T07:41:00;20.00;99.90
56771;DHT22;42641;59.794;17.616;2023-08-24T07:43:27;20.10;99.90
56771;DHT22;42641;59.794;17.616;2023-08-24T07:45:53;20.20;99.90
56771;DHT22;42641;59.794;17.616;2023-08-24T07:48:20;20.30;99.90
56771;DHT22;42641;59.794;17.616;2023-08-24T07:50:47;20.40;99.90
56771;DHT22;42641;59.794;17.616;2023-08-24T07:53:13;20.50;99.90
56771;DHT22;42641;59.794;17.616;2023-08-24T07:55:40;20.50;99.90
56771;DHT22;42641;59.794;17.616;2023-08-24T07:58:06;20.40;99.90
56771;DHT22;42641;59.794;17.616;2023-08-24T08:00:33;20.30;99.90
56771;DHT22;42641;59.794;17.616;2023-08-24T08:02:59;20.30;99.90
56771;DHT22;42641;59.794;17.616;2023-08-24T08:05:26;20.30;99.90
56771;DHT22;42641;59.794;17.616;2023-08-24T08:07:52;20.40;99.90
56771;DHT22;42641;59.794;17.616;2023-08-24T08:10:19;20.40;99.90
56771;DHT22;42641;59.794;17.616;2023-08-24T08:12:47;20.50;99.90
56771;DHT22;42641;59.794;17.616;2023-08-24T08:15:14;20.50;99.90
56771;DHT22;42641;59.794;17.616;2023-08-24T08:17:40;20.50;99.90
56771;DHT22;42641;59.794;17.616;2023-08-24T08:20:08;20.50;99.90
56771;DHT22;42641;59.794;17.616;2023-08-24T08:22:36;20.60;99.90
56771;DHT22;42641;59.794;17.616;2023-08-24T08:25:05;20.70;99.90
56771;DHT22;42641;59.794;17.616;2023-08-24T08:27:32;20.70;99.90
56771;DHT22;42641;59.794;17.616;2023-08-24T08:29:59;20.80;99.90
56771;DHT22;42641;59.794;17.616;2023-08-24T08:32:25;20.80;99.90
56771;DHT22;42641;59.794;17.616;2023-08-24T08:34:56;20.90;99.90
56771;DHT22;42641;59.794;17.616;2023-08-24T08:37:27;20.90;99.90
56771;DHT22;42641;59.794;17.616;2023-08-24T08:39:53;21.00;99.90
56771;DHT22;42641;59.794;17.616;2023-08-24T08:42:19;21.00;99.90
56771;DHT22;42641;59.794;17.616;2023-08-24T08:44:46;21.00;99.90
56771;DHT22;42641;59.794;17.616;2023-08-24T08:47:13;21.00;99.90
56771;DHT22;42641;59.794;17.616;2023-08-24T08:49:43;21.00;99.90
56771;DHT22;42641;59.794;17.616;2023-08-24T08:52:11;21.10;99.90
56771;DHT22;42641;59.794;17.616;2023-08-24T08:54:38;21.20;99.90
56771;DHT22;42641;59.794;17.616;2023-08-24T08:57:04;21.10;99.90
56771;DHT22;42641;59.794;17.616;2023-08-24T08:59:31;21.20;99.90
56771;DHT22;42641;59.794;17.616;2023-08-24T09:02:00;21.20;99.90
56771;DHT22;42641;59.794;17.616;2023-08-24T09:04:31;21.20;99.90
56771;DHT22;42641;59.794;17.616;2023-08-24T09:06:58;21.30;99.90
56771;DHT22;42641;59.794;17.616;2023-08-24T09:09:27;21.40;99.90
56771;DHT22;42641;59.794;17.616;2023-08-24T09:11:53;21.50;99.90
56771;DHT22;42641;59.794;17.616;2023-08-24T09:14:20;21.60;99.90
56771;DHT22;42641;59.794;17.616;2023-08-24T09:16:46;21.60;99.90
56771;DHT22;42641;59.794;17.616;2023-08-24T09:19:13;21.60;99.90
56771;DHT22;42641;59.794;17.616;2023-08-24T09:21:40;21.60;99.90
56771;DHT22;42641;59.794;17.616;2023-08-24T09:24:08;21.50;99.90
56771;DHT22;42641;59.794;17.616;2023-08-24T09:26:37;21.50;99.90
56771;DHT22;42641;59.794;17.616;2023-08-24T09:29:13;21.40;99.90
56771;DHT22;42641;59.794;17.616;2023-08-24T09:31:41;21.40;99.90
56771;DHT22;42641;59.794;17.616;2023-08-24T09:34:10;21.40;99.90
56771;DHT22;42641;59.794;17.616;2023-08-24T09:36:37;21.40;99.90
56771;DHT22;42641;59.794;17.616;2023-08-24T09:39:05;21.40;99.90
56771;DHT22;42641;59.794;17.616;2023-08-24T09:41:42;21.20;99.90
56771;DHT22;42641;59.794;17.616;2023-08-24T09:44:09;21.20;99.90
56771;DHT22;42641;59.794;17.616;2023-08-24T09:46:37;21.20;99.90
56771;DHT22;42641;59.794;17.616;2023-08-24T09:49:12;21.20;99.90
56771;DHT22;42641;59.794;17.616;2023-08-24T09:51:40;21.20;99.90
56771;DHT22;42641;59.794;17.616;2023-08-24T09:54:11;21.20;99.90
56771;DHT22;42641;59.794;17.616;2023-08-24T09:56:40;21.00;99.90
56771;DHT22;42641;59.794;17.616;2023-08-24T09:59:17;20.90;99.90
56771;DHT22;42641;59.794;17.616;2023-08-24T10:01:49;20.80;99.90
56771;DHT22;42641;59.794;17.616;2023-08-24T10:04:25;20.90;99.90
56771;DHT22;42641;59.794;17.616;2023-08-24T10:07:13;20.90;99.90
56771;DHT22;42641;59.794;17.616;2023-08-24T10:09:58;21.20;99.90
56771;DHT22;42641;59.794;17.616;2023-08-24T10:12:32;21.60;99.90
56771;DHT22;42641;59.794;17.616;2023-08-24T10:15:02;22.00;99.90
56771;DHT22;42641;59.794;17.616;2023-08-24T10:17:32;22.40;99.90
56771;DHT22;42641;59.794;17.616;2023-08-24T10:20:00;22.90;99.90
56771;DHT22;42641;59.794;17.616;2023-08-24T10:22:36;23.30;99.90
56771;DHT22;42641;59.794;17.616;2023-08-24T10:25:03;23.70;99.90
56771;DHT22;42641;59.794;17.616;2023-08-24T10:27:30;23.60;99.90
56771;DHT22;42641;59.794;17.616;2023-08-24T10:29:57;23.50;99.90
56771;DHT22;42641;59.794;17.616;2023-08-24T10:32:25;23.50;99.90
56771;DHT22;42641;59.794;17.616;2023-08-24T10:34:52;23.50;99.90
56771;DHT22;42641;59.794;17.616;2023-08-24T10:37:25;23.60;99.90
56771;DHT22;42641;59.794;17.616;2023-08-24T10:39:52;23.50;99.90
56771;DHT22;42641;59.794;17.616;2023-08-24T10:42:18;23.60;99.90
56771;DHT22;42641;59.794;17.616;2023-08-24T10:44:47;23.60;99.90
56771;DHT22;42641;59.794;17.616;2023-08-24T10:47:18;23.80;99.90
56771;DHT22;42641;59.794;17.616;2023-08-24T10:52:23;24.50;99.90
56771;DHT22;42641;59.794;17.616;2023-08-24T10:54:52;24.40;99.90
56771;DHT22;42641;59.794;17.616;2023-08-24T10:57:36;24.10;99.90
56771;DHT22;42641;59.794;17.616;2023-08-24T11:02:44;23.60;99.90
56771;DHT22;42641;59.794;17.616;2023-08-24T11:05:31;23.30;99.90
56771;DHT22;42641;59.794;17.616;2023-08-24T11:08:05;23.10;99.90
56771;DHT22;42641;59.794;17.616;2023-08-24T11:21:08;24.30;99.90
56771;DHT22;42641;59.794;17.616;2023-08-24T11:23:34;24.10;99.90
56771;DHT22;42641;59.794;17.616;2023-08-24T11:26:01;23.80;99.90
56771;DHT22;42641;59.794;17.616;2023-08-24T11:28:29;23.90;99.90
56771;DHT22;42641;59.794;17.616;2023-08-24T11:30:57;24.30;99.90
56771;DHT22;42641;59.794;17.616;2023-08-24T11:33:34;24.80;99.90
56771;DHT22;42641;59.794;17.616;2023-08-24T11:36:03;25.30;99.90
56771;DHT22;42641;59.794;17.616;2023-08-24T11:38:42;26.00;99.90
56771;DHT22;42641;59.794;17.616;2023-08-24T11:41:16;26.90;99.90
56771;DHT22;42641;59.794;17.616;2023-08-24T11:43:43;27.70;99.90
56771;DHT22;42641;59.794;17.616;2023-08-24T11:46:11;28.10;99.90
56771;DHT22;42641;59.794;17.616;2023-08-24T11:48:41;28.70;99.90
56771;DHT22;42641;59.794;17.616;2023-08-24T11:51:11;29.40;99.90
56771;DHT22;42641;59.794;17.616;2023-08-24T11:53:40;29.90;99.90
56771;DHT22;42641;59.794;17.616;2023-08-24T11:56:08;30.30;99.90
56771;DHT22;42641;59.794;17.616;2023-08-24T11:58:40;29.40;99.90
56771;DHT22;42641;59.794;17.616;2023-08-24T12:01:08;28.00;99.90
56771;DHT22;42641;59.794;17.616;2023-08-24T12:03:38;27.00;99.90
56771;DHT22;42641;59.794;17.616;2023-08-24T12:06:12;27.40;99.90
56771;DHT22;42641;59.794;17.616;2023-08-24T12:08:46;28.00;99.90
56771;DHT22;42641;59.794;17.616;2023-08-24T12:11:18;28.60;99.90
56771;DHT22;42641;59.794;17.616;2023-08-24T12:13:50;29.50;99.90
56771;DHT22;42641;59.794;17.616;2023-08-24T12:16:18;30.20;99.90
56771;DHT22;42641;59.794;17.616;2023-08-24T12:18:51;30.40;99.90
56771;DHT22;42641;59.794;17.616;2023-08-24T12:21:17;30.50;99.60
56771;DHT22;42641;59.794;17.616;2023-08-24T12:23:58;30.50;98.70
56771;DHT22;42641;59.794;17.616;2023-08-24T12:26:26;30.90;99.90
56771;DHT22;42641;59.794;17.616;2023-08-24T12:28:59;31.20;98.90
56771;DHT22;42641;59.794;17.616;2023-08-24T12:31:29;31.50;95.50
56771;DHT22;42641;59.794;17.616;2023-08-24T12:34:02;31.70;97.60
56771;DHT22;42641;59.794;17.616;2023-08-24T12:36:33;30.50;96.40
56771;DHT22;42641;59.794;17.616;2023-08-24T12:39:02;29.30;97.70
56771;DHT22;42641;59.794;17.616;2023-08-24T12:41:34;28.30;99.00
56771;DHT22;42641;59.794;17.616;2023-08-24T12:44:00;27.30;99.90
56771;DHT22;42641;59.794;17.616;2023-08-24T12:46:32;26.30;99.90
56771;DHT22;42641;59.794;17.616;2023-08-24T12:48:58;25.60;99.90
56771;DHT22;42641;59.794;17.616;2023-08-24T12:51:24;25.20;99.90
56771;DHT22;42641;59.794;17.616;2023-08-24T12:53:51;24.70;99.90
56771;DHT22;42641;59.794;17.616;2023-08-24T12:56:17;24.20;99.90
56771;DHT22;42641;59.794;17.616;2023-08-24T12:58:44;23.90;99.90
56771;DHT22;42641;59.794;17.616;2023-08-24T13:01:13;23.70;99.90
56771;DHT22;42641;59.794;17.616;2023-08-24T13:03:40;23.60;99.90
56771;DHT22;42641;59.794;17.616;2023-08-24T13:06:06;23.60;99.90
56771;DHT22;42641;59.794;17.616;2023-08-24T13:08:33;23.30;99.90
56771;DHT22;42641;59.794;17.616;2023-08-24T13:10:59;23.00;99.90
56771;DHT22;42641;59.794;17.616;2023-08-24T13:13:27;22.30;99.90
56771;DHT22;42641;59.794;17.616;2023-08-24T13:15:53;22.00;99.90
56771;DHT22;42641;59.794;17.616;2023-08-24T13:18:19;21.90;99.90
56771;DHT22;42641;59.794;17.616;2023-08-24T13:20:46;21.80;99.90
56771;DHT22;42641;59.794;17.616;2023-08-24T13:23:12;22.00;99.90
56771;DHT22;42641;59.794;17.616;2023-08-24T13:25:39;22.30;99.90
56771;DHT22;42641;59.794;17.616;2023-08-24T13:28:06;23.00;99.90
56771;DHT22;42641;59.794;17.616;2023-08-24T13:30:33;23.90;99.90
56771;DHT22;42641;59.794;17.616;2023-08-24T13:32:59;25.00;99.90
56771;DHT22;42641;59.794;17.616;2023-08-24T13:35:26;25.50;99.90
56771;DHT22;42641;59.794;17.616;2023-08-24T13:37:52;25.10;99.90
56771;DHT22;42641;59.794;17.616;2023-08-24T13:40:18;24.70;99.90
56771;DHT22;42641;59.794;17.616;2023-08-24T13:42:45;24.60;99.90
56771;DHT22;42641;59.794;17.616;2023-08-24T13:45:11;24.50;99.90
56771;DHT22;42641;59.794;17.616;2023-08-24T13:47:38;24.40;99.90
56771;DHT22;42641;59.794;17.616;2023-08-24T13:50:05;23.90;99.90
56771;DHT22;42641;59.794;17.616;2023-08-24T13:52:31;23.40;99.90
56771;DHT22;42641;59.794;17.616;2023-08-24T13:54:58;23.10;99.90
56771;DHT22;42641;59.794;17.616;2023-08-24T13:57:25;22.90;99.90
56771;DHT22;42641;59.794;17.616;2023-08-24T13:59:51;22.80;99.90
56771;DHT22;42641;59.794;17.616;2023-08-24T14:02:18;22.60;99.90
56771;DHT22;42641;59.794;17.616;2023-08-24T14:04:44;22.50;99.90
56771;DHT22;42641;59.794;17.616;2023-08-24T14:07:10;22.40;99.90
56771;DHT22;42641;59.794;17.616;2023-08-24T14:09:37;22.20;99.90
56771;DHT22;42641;59.794;17.616;2023-08-24T14:12:03;22.00;99.90
56771;DHT22;42641;59.794;17.616;2023-08-24T14:14:30;21.90;99.90
56771;DHT22;42641;59.794;17.616;2023-08-24T14:16:57;21.90;99.90
56771;DHT22;42641;59.794;17.616;2023-08-24T14:19:23;21.80;99.90
56771;DHT22;42641;59.794;17.616;2023-08-24T14:21:50;21.90;99.90
56771;DHT22;42641;59.794;17.616;2023-08-24T14:24:16;22.30;99.90
56771;DHT22;42641;59.794;17.616;2023-08-24T14:26:43;22.70;99.90
56771;DHT22;42641;59.794;17.616;2023-08-24T14:29:12;23.50;99.90
56771;DHT22;42641;59.794;17.616;2023-08-24T14:31:39;24.80;99.90
56771;DHT22;42641;59.794;17.616;2023-08-24T14:34:06;26.00;99.90
56771;DHT22;42641;59.794;17.616;2023-08-24T14:36:33;26.70;99.90
56771;DHT22;42641;59.794;17.616;2023-08-24T14:38:59;27.20;99.90
56771;DHT22;42641;59.794;17.616;2023-08-24T14:41:25;27.00;99.90
56771;DHT22;42641;59.794;17.616;2023-08-24T14:43:52;26.30;99.90
56771;DHT22;42641;59.794;17.616;2023-08-24T14:46:18;26.60;99.90
56771;DHT22;42641;59.794;17.616;2023-08-24T14:48:45;26.50;99.90
56771;DHT22;42641;59.794;17.616;2023-08-24T14:51:11;26.70;99.90
56771;DHT22;42641;59.794;17.616;2023-08-24T14:53:37;27.20;99.90
56771;DHT22;42641;59.794;17.616;2023-08-24T14:56:04;27.70;99.90
56771;DHT22;42641;59.794;17.616;2023-08-24T14:58:30;27.50;99.90
56771;DHT22;42641;59.794;17.616;2023-08-24T15:00:57;27.60;99.90
56771;DHT22;42641;59.794;17.616;2023-08-24T15:03:24;28.10;99.90
56771;DHT22;42641;59.794;17.616;2023-08-24T15:06:04;28.60;99.90
56771;DHT22;42641;59.794;17.616;2023-08-24T15:08:32;28.50;99.90
56771;DHT22;42641;59.794;17.616;2023-08-24T15:10:59;28.60;99.90
56771;DHT22;42641;59.794;17.616;2023-08-24T15:13:28;28.80;99.90
56771;DHT22;42641;59.794;17.616;2023-08-24T15:15:56;29.20;99.90
56771;DHT22;42641;59.794;17.616;2023-08-24T15:18:23;29.20;99.90
56771;DHT22;42641;59.794;17.616;2023-08-24T15:20:50;29.40;99.90
56771;DHT22;42641;59.794;17.616;2023-08-24T15:23:24;29.20;99.90
56771;DHT22;42641;59.794;17.616;2023-08-24T15:25:54;28.60;99.90
56771;DHT22;42641;59.794;17.616;2023-08-24T15:28:20;27.90;99.90
56771;DHT22;42641;59.794;17.616;2023-08-24T15:30:47;27.20;99.90
56771;DHT22;42641;59.794;17.616;2023-08-24T15:33:14;26.40;99.90
56771;DHT22;42641;59.794;17.616;2023-08-24T15:35:40;25.60;99.90